createdAt,value
2023-01-19T00:02:19.040Z,33.50
2023-01-19T00:05:21.196Z,32.10
2023-01-19T00:08:23.095Z,36.10
2023-01-19T00:14:20.085Z,29.50
2023-01-19T00:17:28.739Z,41.40
2023-01-19T00:20:37.049Z,47.90
2023-01-19T00:23:45.854Z,49.90
2023-01-19T00:26:55.320Z,49.70
2023-01-19T00:30:04.291Z,48.80
2023-01-19T00:33:13.283Z,54.70
2023-01-19T00:36:22.306Z,63.50
2023-01-19T00:39:13.948Z,58.10
2023-01-19T00:42:22.973Z,63.00
2023-01-19T00:45:32.876Z,64.80
2023-01-19T00:48:42.134Z,73.00
2023-01-19T00:51:33.500Z,62.10
2023-01-19T00:54:41.773Z,56.20
2023-01-19T00:57:50.925Z,90.70
2023-01-19T01:01:02.905Z,129.60
2023-01-19T01:04:12.509Z,147.00
2023-01-19T01:07:21.008Z,138.40
2023-01-19T01:10:36.052Z,122.00
2023-01-19T01:13:44.295Z,148.60
2023-01-19T01:16:53.843Z,136.50
2023-01-19T01:20:02.521Z,159.40
2023-01-19T01:23:11.332Z,130.20
2023-01-19T01:26:19.570Z,84.00
2023-01-19T01:29:17.869Z,82.20
2023-01-19T01:32:18.924Z,72.10
2023-01-19T01:35:28.338Z,63.80
2023-01-19T01:38:37.069Z,57.70
2023-01-19T01:41:38.517Z,57.70
2023-01-19T01:44:44.450Z,56.10
2023-01-19T01:48:03.101Z,50.30
2023-01-19T01:51:08.864Z,44.40
2023-01-19T01:54:27.429Z,43.20
2023-01-19T01:57:36.526Z,58.10
2023-01-19T02:00:33.728Z,63.90
2023-01-19T02:03:35.194Z,45.50
2023-01-19T02:06:43.842Z,40.10
2023-01-19T02:09:44.847Z,50.50
2023-01-19T02:12:52.272Z,43.20
2023-01-19T02:16:00.530Z,50.30
2023-01-19T02:19:03.620Z,54.20
2023-01-19T02:22:10.334Z,53.90
2023-01-19T02:25:19.178Z,52.20
2023-01-19T02:28:27.887Z,66.70
2023-01-19T02:31:36.300Z,57.60
2023-01-19T02:34:45.486Z,63.00
2023-01-19T02:37:54.703Z,80.30
2023-01-19T02:41:03.052Z,66.30
2023-01-19T02:44:10.245Z,67.60
2023-01-19T02:47:19.006Z,55.00
2023-01-19T02:50:49.450Z,49.90
2023-01-19T02:54:02.356Z,47.60
2023-01-19T02:57:08.852Z,39.00
2023-01-19T03:00:23.050Z,54.40
2023-01-19T03:03:24.761Z,53.50
2023-01-19T03:06:42.301Z,41.00
2023-01-19T03:10:09.182Z,41.50
2023-01-19T03:13:17.633Z,48.60
2023-01-19T03:16:25.775Z,43.80
2023-01-19T03:19:43.136Z,39.90
2023-01-19T03:22:51.434Z,43.30
2023-01-19T03:26:00.372Z,39.30
2023-01-19T03:29:09.385Z,39.00
2023-01-19T03:32:11.962Z,40.60
2023-01-19T03:35:20.811Z,45.30
2023-01-19T03:38:29.166Z,43.30
2023-01-19T03:41:41.172Z,47.60
2023-01-19T03:44:50.717Z,45.10
2023-01-19T03:47:52.182Z,36.70
2023-01-19T03:51:00.480Z,39.90
2023-01-19T03:54:09.532Z,34.70
2023-01-19T03:57:17.848Z,43.10
2023-01-19T04:00:26.516Z,46.50
2023-01-19T04:03:34.682Z,46.70
2023-01-19T04:06:29.315Z,39.30
2023-01-19T04:09:37.488Z,34.90
2023-01-19T04:12:36.356Z,33.90
2023-01-19T04:15:44.945Z,39.20
2023-01-19T04:18:54.503Z,37.80
2023-01-19T04:21:54.999Z,38.00
2023-01-19T04:24:49.234Z,40.40
2023-01-19T04:27:58.384Z,37.60
2023-01-19T04:31:07.298Z,34.60
2023-01-19T04:34:15.951Z,34.00
2023-01-19T04:37:24.733Z,35.20
2023-01-19T04:40:33.086Z,38.40
2023-01-19T04:43:41.243Z,40.00
2023-01-19T04:46:49.409Z,41.80
2023-01-19T04:49:45.324Z,44.30
2023-01-19T04:52:53.620Z,41.70
2023-01-19T04:56:02.498Z,38.80
2023-01-19T04:59:11.731Z,41.10
2023-01-19T05:02:20.461Z,41.50
2023-01-19T05:05:27.322Z,37.90
2023-01-19T05:08:36.370Z,37.40
2023-01-19T05:11:45.019Z,35.10
2023-01-19T05:14:53.580Z,41.50
2023-01-19T05:18:03.201Z,42.60
2023-01-19T05:21:10.206Z,37.10
2023-01-19T05:24:18.545Z,34.30
2023-01-19T05:27:17.139Z,33.50
2023-01-19T05:30:26.186Z,39.30
2023-01-19T05:33:35.197Z,43.80
2023-01-19T05:36:43.631Z,50.90
2023-01-19T05:39:53.265Z,48.00
2023-01-19T05:43:02.161Z,44.60
2023-01-19T05:46:11.078Z,53.00
2023-01-19T05:49:19.352Z,52.20
2023-01-19T05:52:30.299Z,55.20
2023-01-19T05:55:38.573Z,51.30
2023-01-19T05:58:47.950Z,51.30
2023-01-19T06:01:57.335Z,47.50
2023-01-19T06:04:55.984Z,46.00
2023-01-19T06:08:04.519Z,44.10
2023-01-19T06:11:13.918Z,40.80
2023-01-19T06:14:22.811Z,45.70
2023-01-19T06:17:31.484Z,43.10
2023-01-19T06:20:40.546Z,41.70
2023-01-19T06:23:49.858Z,50.20
2023-01-19T06:26:59.142Z,44.90
2023-01-19T06:29:58.578Z,55.10
2023-01-19T06:33:07.400Z,59.40
2023-01-19T06:36:16.316Z,52.60
2023-01-19T06:39:25.367Z,49.50
2023-01-19T06:42:33.537Z,55.50
2023-01-19T06:45:43.741Z,54.20
2023-01-19T06:48:35.858Z,55.80
2023-01-19T06:51:44.459Z,60.20
2023-01-19T06:54:54.067Z,56.20
2023-01-19T06:58:05.061Z,57.80
2023-01-19T07:01:14.175Z,47.40
2023-01-19T07:04:23.051Z,50.20
2023-01-19T07:07:32.210Z,50.70
2023-01-19T07:11:25.749Z,51.80
2023-01-19T07:14:08.779Z,53.70
2023-01-19T07:17:17.065Z,55.70
2023-01-19T07:20:26.036Z,59.90
2023-01-19T07:23:35.646Z,51.10
2023-01-19T07:26:43.818Z,49.80
2023-01-19T07:29:52.425Z,55.70
2023-01-19T07:33:01.224Z,51.00
2023-01-19T07:36:09.704Z,54.50
2023-01-19T07:39:21.882Z,59.40
2023-01-19T07:42:30.923Z,66.90
2023-01-19T07:45:39.549Z,49.20
2023-01-19T07:48:49.685Z,60.60
2023-01-19T07:51:59.059Z,48.00
2023-01-19T07:55:08.193Z,45.80
2023-01-19T07:58:16.874Z,57.80
2023-01-19T08:01:25.745Z,59.80
2023-01-19T08:04:34.630Z,57.40
2023-01-19T08:07:43.986Z,55.50
2023-01-19T08:10:53.616Z,69.20
2023-01-19T08:14:01.834Z,66.80
2023-01-19T08:17:09.991Z,63.60
2023-01-19T08:20:19.245Z,66.40
2023-01-19T08:23:27.378Z,60.30
2023-01-19T08:26:39.563Z,58.50
2023-01-19T08:29:48.466Z,57.20
2023-01-19T08:32:57.580Z,58.30
2023-01-19T08:35:59.668Z,54.60
2023-01-19T08:39:00.666Z,57.90
2023-01-19T08:42:09.814Z,76.20
2023-01-19T08:45:18.243Z,100.60
2023-01-19T08:48:27.252Z,138.00
2023-01-19T08:51:35.711Z,161.50
2023-01-19T08:54:44.743Z,164.50
2023-01-19T08:57:53.660Z,73.80
2023-01-19T09:00:59.773Z,68.80
2023-01-19T09:04:08.245Z,72.00
2023-01-19T09:07:17.397Z,66.30
2023-01-19T09:10:26.476Z,61.60
2023-01-19T09:13:35.487Z,63.20
2023-01-19T09:16:04.468Z,41.20
2023-01-19T09:18:56.313Z,59.50
2023-01-19T09:22:05.292Z,53.80
2023-01-19T09:24:56.882Z,65.80
2023-01-19T09:28:05.553Z,55.90
2023-01-19T09:31:15.042Z,49.60
2023-01-19T09:34:23.670Z,54.70
2023-01-19T09:37:32.981Z,57.40
2023-01-19T09:40:34.212Z,62.40
2023-01-19T09:46:37.634Z,55.90
2023-01-19T09:49:54.883Z,44.10
2023-01-19T09:53:03.183Z,56.30
2023-01-19T09:55:58.027Z,54.10
2023-01-19T09:58:41.010Z,59.30
2023-01-19T10:01:53.451Z,59.00
2023-01-19T10:05:05.174Z,58.60
2023-01-19T10:08:35.738Z,56.60
2023-01-19T10:11:53.107Z,54.00
2023-01-19T10:15:06.209Z,27.80
2023-01-19T10:18:30.519Z,58.00
2023-01-19T10:21:42.560Z,58.20
2023-01-19T10:24:58.196Z,58.00
2023-01-19T10:28:00.680Z,63.50
2023-01-19T10:30:53.144Z,60.90
2023-01-19T10:34:01.667Z,65.80
2023-01-19T10:37:14.840Z,57.70
2023-01-19T10:40:31.935Z,62.40
2023-01-19T10:43:56.644Z,67.00
2023-01-19T10:47:25.669Z,55.80
2023-01-19T10:50:18.682Z,55.80
2023-01-19T10:53:27.327Z,58.20
2023-01-19T10:56:54.730Z,63.60
2023-01-19T11:00:04.749Z,56.20
2023-01-19T11:03:13.959Z,51.30
2023-01-19T11:06:35.365Z,40.70
2023-01-19T11:09:50.463Z,30.10
2023-01-19T11:12:57.598Z,47.10
2023-01-19T11:16:13.242Z,44.20
2023-01-19T11:19:21.519Z,50.30
2023-01-19T11:22:36.091Z,29.40
2023-01-19T11:25:45.837Z,43.90
2023-01-19T11:28:58.743Z,45.40
2023-01-19T11:32:08.046Z,45.60
2023-01-19T11:35:16.238Z,43.20
2023-01-19T11:38:25.745Z,34.90
2023-01-19T11:41:46.655Z,38.90
2023-01-19T11:45:07.383Z,38.20
2023-01-19T11:48:24.868Z,30.70
2023-01-19T11:51:35.948Z,35.20
2023-01-19T11:54:42.367Z,34.20
2023-01-19T12:00:43.098Z,37.20
2023-01-19T12:03:57.731Z,30.30
2023-01-19T12:07:07.824Z,35.20
2023-01-19T12:10:17.474Z,34.50
2023-01-19T12:13:25.373Z,35.70
2023-01-19T12:16:39.957Z,26.70
2023-01-19T12:19:54.587Z,34.70
2023-01-19T12:23:04.252Z,32.60
2023-01-19T12:26:01.772Z,36.10
2023-01-19T12:28:57.554Z,31.40
2023-01-19T12:32:05.738Z,33.80
2023-01-19T12:35:20.433Z,34.00
2023-01-19T12:38:27.906Z,33.30
2023-01-19T12:41:55.910Z,28.90
2023-01-19T12:44:58.752Z,32.10
2023-01-19T12:47:56.483Z,32.60
2023-01-19T12:50:56.938Z,30.10
2023-01-19T12:54:06.021Z,31.60
2023-01-19T12:57:15.098Z,22.20
2023-01-19T13:00:42.285Z,34.70
2023-01-19T13:04:02.560Z,27.60
2023-01-19T13:07:29.201Z,36.50
2023-01-19T13:10:36.600Z,22.40
2023-01-19T13:13:57.245Z,32.20
2023-01-19T13:17:02.251Z,39.50
2023-01-19T13:20:25.699Z,34.50
2023-01-19T13:23:40.387Z,28.70
2023-01-19T13:26:53.008Z,26.30
2023-01-19T13:30:12.393Z,36.90
2023-01-19T13:33:22.384Z,33.40
2023-01-19T13:36:41.180Z,21.40
2023-01-19T13:39:56.488Z,24.10
2023-01-19T13:43:04.969Z,18.20
2023-01-19T13:46:16.806Z,29.00
2023-01-19T13:49:47.087Z,37.50
2023-01-19T13:52:56.161Z,30.30
2023-01-19T13:56:08.269Z,28.30
2023-01-19T13:59:19.710Z,24.80
2023-01-19T14:02:28.401Z,31.60
2023-01-19T14:05:37.427Z,26.90
2023-01-19T14:08:48.802Z,25.80
2023-01-19T14:11:42.816Z,32.50
2023-01-19T14:15:04.372Z,31.70
2023-01-19T14:18:10.581Z,28.40
2023-01-19T14:21:26.057Z,24.10
2023-01-19T14:24:41.789Z,30.00
2023-01-19T14:27:51.023Z,26.40
2023-01-19T14:30:44.133Z,29.80
2023-01-19T14:33:56.388Z,31.70
2023-01-19T14:37:14.541Z,29.10
2023-01-19T14:40:28.913Z,29.60
2023-01-19T14:43:30.579Z,34.60
2023-01-19T14:46:39.720Z,30.40
2023-01-19T14:49:49.839Z,29.70
2023-01-19T14:53:10.967Z,22.20
2023-01-19T14:56:19.673Z,32.70
2023-01-19T14:59:12.264Z,25.80
2023-01-19T15:02:20.539Z,32.70
2023-01-19T15:05:29.644Z,29.30
2023-01-19T15:08:38.312Z,35.50
2023-01-19T15:11:12.862Z,33.50
2023-01-19T15:14:02.879Z,29.30
2023-01-19T15:16:52.978Z,32.20
2023-01-19T15:20:01.960Z,33.40
2023-01-19T15:23:10.432Z,25.50
2023-01-19T15:26:18.681Z,29.40
2023-01-19T15:29:39.089Z,20.80
2023-01-19T15:32:50.692Z,26.30
2023-01-19T15:35:59.386Z,37.70
2023-01-19T15:38:49.875Z,20.60
2023-01-19T15:42:04.326Z,27.60
2023-01-19T15:45:14.118Z,23.00
2023-01-19T15:48:22.294Z,32.70
2023-01-19T15:51:34.121Z,26.70
2023-01-19T15:54:42.423Z,28.70
2023-01-19T15:57:44.258Z,30.40
2023-01-19T16:00:52.594Z,33.90
2023-01-19T16:03:59.655Z,27.90
2023-01-19T16:07:07.949Z,28.50
2023-01-19T16:10:14.162Z,30.80
2023-01-19T16:13:23.009Z,28.80
2023-01-19T16:16:12.900Z,22.60
2023-01-19T16:19:22.205Z,33.00
2023-01-19T16:22:31.043Z,29.10
2023-01-19T16:25:40.816Z,36.50
2023-01-19T16:28:49.840Z,29.10
2023-01-19T16:32:00.584Z,42.90
2023-01-19T16:35:09.428Z,30.60
2023-01-19T16:38:18.326Z,28.70
2023-01-19T16:41:26.575Z,27.80
2023-01-19T16:44:36.386Z,22.10
2023-01-19T16:47:45.936Z,25.80
2023-01-19T16:50:54.160Z,32.80
2023-01-19T16:53:55.796Z,41.00
2023-01-19T16:57:04.703Z,40.60
2023-01-19T16:59:53.020Z,43.60
2023-01-19T17:03:02.503Z,42.20
2023-01-19T17:06:10.743Z,38.00
2023-01-19T17:09:19.406Z,32.60
2023-01-19T17:12:15.125Z,34.60
2023-01-19T17:17:55.343Z,40.90
2023-01-19T17:21:03.726Z,38.80
2023-01-19T17:24:13.203Z,41.00
2023-01-19T17:27:22.779Z,39.10
2023-01-19T17:30:31.872Z,37.00
2023-01-19T17:33:41.603Z,24.30
2023-01-19T17:36:52.101Z,30.50
2023-01-19T17:40:00.754Z,48.60
2023-01-19T17:43:09.788Z,46.10
2023-01-19T17:46:18.805Z,32.90
2023-01-19T17:49:27.090Z,38.50
2023-01-19T17:52:20.154Z,35.70
2023-01-19T17:55:28.891Z,40.80
2023-01-19T17:58:29.447Z,37.80
2023-01-19T18:01:34.092Z,50.90
2023-01-19T18:04:37.000Z,39.20
2023-01-19T18:10:35.760Z,38.50
2023-01-19T18:13:45.111Z,32.90
2023-01-19T18:16:47.216Z,42.60
2023-01-19T18:19:56.800Z,41.30
2023-01-19T18:23:05.114Z,35.70
2023-01-19T18:26:19.910Z,45.60
2023-01-19T18:29:09.023Z,53.20
2023-01-19T18:32:18.058Z,46.90
2023-01-19T18:35:27.412Z,50.90
2023-01-19T18:38:35.550Z,43.20
2023-01-19T18:41:44.192Z,40.60
2023-01-19T18:44:53.879Z,44.50
2023-01-19T18:47:55.652Z,47.90
2023-01-19T18:51:03.958Z,55.90
2023-01-19T18:54:06.995Z,34.70
2023-01-19T18:57:08.858Z,42.40
2023-01-19T19:00:17.597Z,39.50
2023-01-19T19:03:26.968Z,48.50
2023-01-19T19:06:29.981Z,38.30
2023-01-19T19:09:38.149Z,49.40
2023-01-19T19:12:47.031Z,47.00
2023-01-19T19:15:58.455Z,48.00
2023-01-19T19:19:07.573Z,43.00
2023-01-19T19:22:17.145Z,43.40
2023-01-19T19:25:26.022Z,57.70
2023-01-19T19:28:04.083Z,51.40
2023-01-19T19:31:12.698Z,51.10
2023-01-19T19:34:21.885Z,47.40
2023-01-19T19:37:30.928Z,40.40
2023-01-19T19:40:40.514Z,44.90
2023-01-19T19:43:48.733Z,53.00
2023-01-19T19:46:58.066Z,52.70
2023-01-19T19:50:06.540Z,47.40
2023-01-19T19:53:15.052Z,38.70
2023-01-19T19:56:23.722Z,46.90
2023-01-19T19:59:33.253Z,55.80
2023-01-19T20:02:41.819Z,48.00
2023-01-19T20:05:50.997Z,38.50
2023-01-19T20:09:00.078Z,36.10
2023-01-19T20:12:11.285Z,41.80
2023-01-19T20:15:20.562Z,39.50
2023-01-19T20:18:29.888Z,41.80
2023-01-19T20:21:44.484Z,34.70
2023-01-19T20:24:56.802Z,27.50
2023-01-19T20:28:06.494Z,36.00
2023-01-19T20:31:15.694Z,29.00
2023-01-19T20:34:15.044Z,36.50
2023-01-19T20:37:24.427Z,37.70
2023-01-19T20:40:33.281Z,33.80
2023-01-19T20:43:21.849Z,36.60
2023-01-19T20:46:30.137Z,33.60
2023-01-19T20:49:30.203Z,29.50
2023-01-19T20:52:39.567Z,29.90
2023-01-19T20:55:48.991Z,33.50
2023-01-19T20:58:46.231Z,33.30
2023-01-19T21:01:38.980Z,31.80
2023-01-19T21:04:32.954Z,30.80
2023-01-19T21:07:41.675Z,31.10
2023-01-19T21:10:50.594Z,31.10
2023-01-19T21:13:59.026Z,33.50
2023-01-19T21:17:07.587Z,33.60
2023-01-19T21:20:16.584Z,33.10
2023-01-19T21:23:25.582Z,34.80
2023-01-19T21:26:33.960Z,38.40
2023-01-19T21:29:43.912Z,32.80
2023-01-19T21:32:53.279Z,33.20
2023-01-19T21:36:01.757Z,34.10
2023-01-19T21:39:10.300Z,36.80
2023-01-19T21:42:19.640Z,40.00
2023-01-19T21:45:28.183Z,36.70
2023-01-19T21:48:37.485Z,39.20
2023-01-19T21:51:39.146Z,32.80
2023-01-19T21:54:48.559Z,40.00
2023-01-19T21:57:57.489Z,31.20
2023-01-19T22:01:07.549Z,41.70
2023-01-19T22:04:15.892Z,30.70
2023-01-19T22:07:25.532Z,45.80
2023-01-19T22:10:34.696Z,45.40
2023-01-19T22:13:36.560Z,40.70
2023-01-19T22:16:46.061Z,48.70
2023-01-19T22:19:43.933Z,40.60
2023-01-19T22:22:50.693Z,52.40
2023-01-19T22:25:32.455Z,50.10
2023-01-19T22:28:40.641Z,48.30
2023-01-19T22:31:53.019Z,47.70
2023-01-19T22:34:48.446Z,60.30
2023-01-19T22:37:57.511Z,49.20
2023-01-19T22:41:06.649Z,52.30
2023-01-19T22:44:15.129Z,46.60
2023-01-19T22:47:05.959Z,52.20
2023-01-19T22:50:15.154Z,61.60
2023-01-19T22:53:23.745Z,48.00
2023-01-19T22:56:38.520Z,53.80
2023-01-19T22:59:47.276Z,59.00
2023-01-19T23:02:56.571Z,52.80
2023-01-19T23:05:56.451Z,65.50
2023-01-19T23:08:57.368Z,58.70
2023-01-19T23:12:08.738Z,61.20
2023-01-19T23:15:10.267Z,41.60
2023-01-19T23:18:19.991Z,41.60
2023-01-19T23:21:28.405Z,34.00
2023-01-19T23:24:30.781Z,35.80
2023-01-19T23:27:38.941Z,33.60
2023-01-19T23:30:29.519Z,32.80
2023-01-19T23:33:29.956Z,22.90
2023-01-19T23:36:39.398Z,29.00
2023-01-19T23:39:46.856Z,27.10
2023-01-19T23:42:56.044Z,27.20
2023-01-19T23:46:05.583Z,30.90
2023-01-19T23:49:03.816Z,29.60
2023-01-19T23:52:11.997Z,39.20
2023-01-19T23:55:20.250Z,27.90
2023-01-19T23:58:28.726Z,32.90
